SWR154 LSZH-VABB
Flight info
| Callsign | SWR154 |
|---|---|
| Flight time | N/A |
| Altitude | 35000 |
| Route | DEGES5L/32 DEGES Z2 UMVEG/N0465F370 DCT DIMLO DCT INVED DCT SOKRU DCT DINRO DCT UDROS DCT CRM DCT ROLIN/N0464F390 DCT TETRO DCT BARAD M747 SUBUT T923 ERLEV M11 RODAR A909 ABDAN A846 RANAH L750 ZB G202 RK P628 VIKIT/N0467F410 Z8 AAE/N0477F400 R458 BVR/N0473F410 R458 BOFIN POKON2A |
| Aircraft | A343/H-SDE2E3FGHIJ4J5M1RWXY/LB1D1 |
Departure
| Time | 2026-04-25 21:05 |
|---|---|
| Airport | Zürich Airport (LSZH) |
Arrival
| Time | N/A |
|---|---|
| Airport | Chhatrapati Shivaji Maharaj International Airport (VABB) |
| Time | Latitude | Longitude | Altitude | Speed | Heading |
|---|---|---|---|---|---|
| 2026-04-25 20:38 | 47.46073 | 8.55242 | 1399 ft | 0 kts | 6° |
| 2026-04-25 20:53 | 47.46061 | 8.55241 | 1408 ft | 2 kts | 6° |
| 2026-04-25 20:53 | 47.46045 | 8.55238 | 1401 ft | 2 kts | 6° |
| 2026-04-25 20:54 | 47.46029 | 8.55236 | 1404 ft | 2 kts | 6° |
| 2026-04-25 20:54 | 47.46013 | 8.55234 | 1407 ft | 2 kts | 13° |
| 2026-04-25 20:54 | 47.45998 | 8.55225 | 1408 ft | 2 kts | 51° |
| 2026-04-25 20:54 | 47.45989 | 8.55205 | 1409 ft | 2 kts | 76° |
| 2026-04-25 20:55 | 47.45986 | 8.55182 | 1405 ft | 2 kts | 96° |
| 2026-04-25 20:55 | 47.45987 | 8.55163 | 1409 ft | 0 kts | 96° |
| 2026-04-25 20:57 | 47.45987 | 8.55166 | 1409 ft | 3 kts | 96° |
| 2026-04-25 20:57 | 47.45980 | 8.55279 | 1408 ft | 15 kts | 94° |
| 2026-04-25 20:57 | 47.45971 | 8.55420 | 1407 ft | 13 kts | 96° |
| 2026-04-25 20:58 | 47.45967 | 8.55475 | 1409 ft | 0 kts | 96° |
| 2026-04-25 20:58 | 47.45967 | 8.55476 | 1409 ft | 1 kts | 96° |
| 2026-04-25 20:59 | 47.45963 | 8.55526 | 1412 ft | 0 kts | 96° |
| 2026-04-25 20:59 | 47.45963 | 8.55535 | 1412 ft | 4 kts | 96° |
| 2026-04-25 20:59 | 47.45960 | 8.55571 | 1410 ft | 3 kts | 96° |
| 2026-04-25 20:59 | 47.45956 | 8.55628 | 1405 ft | 8 kts | 96° |
| 2026-04-25 21:00 | 47.45950 | 8.55717 | 1407 ft | 12 kts | 96° |
| 2026-04-25 21:00 | 47.45945 | 8.55795 | 1408 ft | 11 kts | 96° |
| 2026-04-25 21:00 | 47.45928 | 8.56035 | 1416 ft | 12 kts | 96° |
| 2026-04-25 21:01 | 47.45920 | 8.56152 | 1421 ft | 11 kts | 96° |
| 2026-04-25 21:01 | 47.45914 | 8.56248 | 1416 ft | 8 kts | 92° |
| 2026-04-25 21:01 | 47.45933 | 8.56302 | 1424 ft | 5 kts | 38° |
| 2026-04-25 21:01 | 47.45969 | 8.56314 | 1420 ft | 6 kts | 10° |
| 2026-04-25 21:02 | 47.46006 | 8.56322 | 1420 ft | 0 kts | 3° |
| 2026-04-25 21:02 | 47.46072 | 8.56347 | 1421 ft | 17 kts | 30° |
| 2026-04-25 21:03 | 47.46141 | 8.56413 | 1421 ft | 3 kts | 16° |
| 2026-04-25 21:03 | 47.46164 | 8.56399 | 1416 ft | 3 kts | 319° |
| 2026-04-25 21:03 | 47.46173 | 8.56387 | 1421 ft | 0 kts | 317° |
| 2026-04-25 21:04 | 47.46309 | 8.56201 | 1416 ft | 56 kts | 317° |
| 2026-04-25 21:04 | 47.46727 | 8.55631 | 1407 ft | 106 kts | 316° |
| 2026-04-25 21:05 | 47.47372 | 8.54750 | 1406 ft | 145 kts | 317° |
| 2026-04-25 21:05 | 47.48152 | 8.53661 | 1710 ft | 151 kts | 317° |
| 2026-04-25 21:05 | 47.48879 | 8.52641 | 2277 ft | 143 kts | 318° |
| 2026-04-25 21:05 | 47.49644 | 8.51647 | 2588 ft | 151 kts | 327° |
| 2026-04-25 21:06 | 47.50533 | 8.50663 | 2793 ft | 170 kts | 320° |
| 2026-04-25 21:06 | 47.51306 | 8.49203 | 2997 ft | 193 kts | 301° |
| 2026-04-25 21:06 | 47.51728 | 8.47216 | 3341 ft | 212 kts | 281° |
| 2026-04-25 21:06 | 47.51805 | 8.45776 | 3651 ft | 220 kts | 272° |
| 2026-04-25 21:07 | 47.51146 | 8.42850 | 4491 ft | 228 kts | 229° |
| 2026-04-25 21:07 | 47.49859 | 8.41529 | 5305 ft | 225 kts | 198° |
| 2026-04-25 21:07 | 47.48308 | 8.41360 | 6009 ft | 228 kts | 169° |
| 2026-04-25 21:07 | 47.46853 | 8.42285 | 6654 ft | 234 kts | 142° |
| 2026-04-25 21:08 | 47.45884 | 8.44181 | 7272 ft | 239 kts | 111° |
| 2026-04-25 21:08 | 47.45607 | 8.46705 | 7636 ft | 257 kts | 90° |
| 2026-04-25 21:08 | 47.45619 | 8.49455 | 7994 ft | 276 kts | 89° |
| 2026-04-25 21:08 | 47.45651 | 8.52336 | 8557 ft | 284 kts | 89° |
| 2026-04-25 21:09 | 47.45702 | 8.58248 | 9893 ft | 294 kts | 92° |
| 2026-04-25 21:09 | 47.45550 | 8.61293 | 10461 ft | 302 kts | 94° |
| 2026-04-25 21:09 | 47.45347 | 8.64468 | 10730 ft | 319 kts | 95° |
| 2026-04-25 21:10 | 47.45117 | 8.67818 | 10972 ft | 336 kts | 95° |
| 2026-04-25 21:10 | 47.44868 | 8.71345 | 11205 ft | 353 kts | 95° |
| 2026-04-25 21:10 | 47.44605 | 8.75020 | 11448 ft | 368 kts | 95° |
| 2026-04-25 21:10 | 47.44328 | 8.78856 | 11751 ft | 381 kts | 95° |
| 2026-04-25 21:11 | 47.44045 | 8.82756 | 12221 ft | 388 kts | 95° |
| 2026-04-25 21:11 | 47.43753 | 8.86758 | 12848 ft | 391 kts | 95° |
| 2026-04-25 21:11 | 47.43460 | 8.90763 | 13473 ft | 394 kts | 95° |
| 2026-04-25 21:11 | 47.43161 | 8.94801 | 14067 ft | 398 kts | 95° |
| 2026-04-25 21:12 | 47.42858 | 8.98880 | 14604 ft | 402 kts | 95° |
| 2026-04-25 21:12 | 47.42552 | 9.02999 | 15131 ft | 405 kts | 94° |
| 2026-04-25 21:12 | 47.42240 | 9.07145 | 15684 ft | 408 kts | 94° |
| 2026-04-25 21:12 | 47.42032 | 9.09913 | 16053 ft | 410 kts | 94° |
| 2026-04-25 21:13 | 47.41606 | 9.15553 | 16790 ft | 415 kts | 94° |
| 2026-04-25 21:13 | 47.41437 | 9.19807 | 17322 ft | 416 kts | 85° |
| 2026-04-25 21:13 | 47.41695 | 9.23536 | 17854 ft | 415 kts | 79° |
| 2026-04-25 21:13 | 47.42213 | 9.27740 | 18406 ft | 417 kts | 75° |
| 2026-04-25 21:14 | 47.42855 | 9.31931 | 18881 ft | 420 kts | 74° |
| 2026-04-25 21:14 | 47.43547 | 9.36139 | 19349 ft | 422 kts | 73° |
| 2026-04-25 21:14 | 47.44248 | 9.40381 | 19834 ft | 426 kts | 73° |
| 2026-04-25 21:14 | 47.44937 | 9.44651 | 20294 ft | 429 kts | 73° |
| 2026-04-25 21:15 | 47.45613 | 9.48963 | 20754 ft | 433 kts | 73° |
| 2026-04-25 21:15 | 47.46278 | 9.53308 | 21209 ft | 436 kts | 73° |
| 2026-04-25 21:15 | 47.46850 | 9.57733 | 21660 ft | 441 kts | 79° |
| 2026-04-25 21:15 | 47.47036 | 9.62293 | 22083 ft | 448 kts | 87° |
| 2026-04-25 21:16 | 47.46949 | 9.66913 | 22547 ft | 451 kts | 89° |
| 2026-04-25 21:16 | 47.46751 | 9.71563 | 22951 ft | 455 kts | 90° |
| 2026-04-25 21:16 | 47.46492 | 9.76252 | 23339 ft | 459 kts | 91° |
| 2026-04-25 21:16 | 47.46211 | 9.80906 | 23700 ft | 462 kts | 91° |
| 2026-04-25 21:17 | 47.45920 | 9.85653 | 24026 ft | 465 kts | 91° |
| 2026-04-25 21:17 | 47.45631 | 9.90430 | 24365 ft | 468 kts | 91° |
| 2026-04-25 21:17 | 47.45346 | 9.95243 | 24657 ft | 471 kts | 91° |
| 2026-04-25 21:17 | 47.45065 | 10.00075 | 25002 ft | 473 kts | 91° |
| 2026-04-25 21:18 | 47.44785 | 10.04919 | 25355 ft | 474 kts | 91° |
| 2026-04-25 21:18 | 47.44505 | 10.09789 | 25730 ft | 476 kts | 91° |
| 2026-04-25 21:18 | 47.44221 | 10.14663 | 26042 ft | 478 kts | 91° |
| 2026-04-25 21:18 | 47.43775 | 10.19564 | 26338 ft | 482 kts | 96° |
| 2026-04-25 21:19 | 47.43191 | 10.24449 | 26659 ft | 485 kts | 97° |
| 2026-04-25 21:19 | 47.42559 | 10.29354 | 26941 ft | 488 kts | 98° |
| 2026-04-25 21:19 | 47.41898 | 10.34276 | 27241 ft | 490 kts | 98° |
| 2026-04-25 21:19 | 47.41224 | 10.39213 | 27509 ft | 492 kts | 98° |
| 2026-04-25 21:20 | 47.40542 | 10.44172 | 27801 ft | 494 kts | 98° |
| 2026-04-25 21:20 | 47.40312 | 10.45846 | 27920 ft | 494 kts | 98° |
| 2026-04-25 21:20 | 47.39174 | 10.54124 | 28430 ft | 497 kts | 98° |
| 2026-04-25 21:20 | 47.38482 | 10.59130 | 28660 ft | 499 kts | 99° |
| 2026-04-25 21:21 | 47.37784 | 10.64159 | 28917 ft | 501 kts | 99° |
| 2026-04-25 21:21 | 47.37081 | 10.69196 | 29284 ft | 501 kts | 98° |
| 2026-04-25 21:21 | 47.36379 | 10.74220 | 29663 ft | 500 kts | 99° |
| 2026-04-25 21:21 | 47.35675 | 10.79235 | 30049 ft | 499 kts | 99° |
| 2026-04-25 21:22 | 47.34970 | 10.84242 | 30314 ft | 499 kts | 99° |
| 2026-04-25 21:22 | 47.34264 | 10.89252 | 30668 ft | 498 kts | 99° |
| 2026-04-25 21:22 | 47.33562 | 10.94239 | 30931 ft | 497 kts | 99° |
| 2026-04-25 21:22 | 47.32864 | 10.99238 | 31085 ft | 498 kts | 98° |
| 2026-04-25 21:23 | 47.32359 | 11.04280 | 31309 ft | 497 kts | 95° |
| 2026-04-25 21:23 | 47.31911 | 11.09317 | 31583 ft | 495 kts | 95° |
| 2026-04-25 21:23 | 47.31480 | 11.14349 | 31809 ft | 495 kts | 94° |
| 2026-04-25 21:23 | 47.31059 | 11.19387 | 32018 ft | 495 kts | 94° |
| 2026-04-25 21:24 | 47.30642 | 11.24421 | 32267 ft | 495 kts | 94° |
| 2026-04-25 21:24 | 47.30231 | 11.29383 | 32554 ft | 494 kts | 94° |
| 2026-04-25 21:24 | 47.29811 | 11.34408 | 32803 ft | 494 kts | 94° |
| 2026-04-25 21:24 | 47.29389 | 11.39430 | 32924 ft | 494 kts | 94° |
| 2026-04-25 21:25 | 47.28963 | 11.44455 | 33103 ft | 494 kts | 95° |
| 2026-04-25 21:25 | 47.28535 | 11.49471 | 33352 ft | 494 kts | 95° |
| 2026-04-25 21:25 | 47.28105 | 11.54475 | 33580 ft | 493 kts | 95° |
| 2026-04-25 21:25 | 47.27673 | 11.59494 | 33815 ft | 493 kts | 95° |
| 2026-04-25 21:26 | 47.27238 | 11.64508 | 34052 ft | 493 kts | 95° |
| 2026-04-25 21:26 | 47.26801 | 11.69515 | 34267 ft | 493 kts | 95° |
| 2026-04-25 21:26 | 47.26362 | 11.74516 | 34472 ft | 492 kts | 95° |
| 2026-04-25 21:26 | 47.25922 | 11.79508 | 34664 ft | 492 kts | 95° |
| 2026-04-25 21:27 | 47.25479 | 11.84507 | 34849 ft | 492 kts | 95° |
| 2026-04-25 21:27 | 47.25036 | 11.89490 | 35025 ft | 491 kts | 95° |
| 2026-04-25 21:27 | 47.24138 | 11.99520 | 35107 ft | 497 kts | 95° |
| 2026-04-25 21:28 | 47.23226 | 12.09580 | 35113 ft | 495 kts | 95° |
| 2026-04-25 21:28 | 47.22309 | 12.19600 | 35114 ft | 494 kts | 95° |
| 2026-04-25 21:29 | 47.21381 | 12.29631 | 35110 ft | 494 kts | 95° |
| 2026-04-25 21:29 | 47.20446 | 12.39644 | 35110 ft | 494 kts | 96° |
| 2026-04-25 21:30 | 47.19501 | 12.49667 | 35119 ft | 494 kts | 95° |
| 2026-04-25 21:30 | 47.18711 | 12.57981 | 35104 ft | 494 kts | 95° |
| 2026-04-25 21:31 | 47.17752 | 12.67994 | 35102 ft | 494 kts | 96° |
| 2026-04-25 21:31 | 47.16785 | 12.77994 | 35097 ft | 494 kts | 96° |
| 2026-04-25 21:32 | 47.15807 | 12.87992 | 35109 ft | 494 kts | 96° |
| 2026-04-25 21:32 | 47.14822 | 12.97975 | 35103 ft | 493 kts | 96° |
| 2026-04-25 21:33 | 47.13831 | 13.07940 | 35106 ft | 493 kts | 96° |
| 2026-04-25 21:33 | 47.12837 | 13.17845 | 35095 ft | 493 kts | 96° |
| 2026-04-25 21:34 | 47.11827 | 13.27814 | 35101 ft | 494 kts | 96° |
| 2026-04-25 21:34 | 47.10801 | 13.37837 | 35096 ft | 493 kts | 96° |
| 2026-04-25 21:35 | 47.09782 | 13.47715 | 35091 ft | 492 kts | 96° |
| 2026-04-25 21:35 | 47.08751 | 13.57653 | 35098 ft | 493 kts | 96° |
| 2026-04-25 21:36 | 47.07708 | 13.67592 | 35083 ft | 493 kts | 96° |
| 2026-04-25 21:36 | 47.06657 | 13.77518 | 35083 ft | 491 kts | 96° |
| 2026-04-25 21:37 | 47.05779 | 13.85745 | 35086 ft | 491 kts | 96° |
| 2026-04-25 21:37 | 47.04534 | 13.97309 | 35076 ft | 491 kts | 97° |
| 2026-04-25 21:38 | 47.03461 | 14.07196 | 35075 ft | 491 kts | 97° |
| 2026-04-25 21:38 | 47.02380 | 14.17075 | 35069 ft | 490 kts | 97° |
| 2026-04-25 21:39 | 47.01294 | 14.26915 | 35067 ft | 489 kts | 97° |
| 2026-04-25 21:39 | 47.00199 | 14.36759 | 35065 ft | 489 kts | 97° |
| 2026-04-25 21:40 | 46.99103 | 14.46530 | 35060 ft | 489 kts | 97° |
| 2026-04-25 21:40 | 46.97983 | 14.56443 | 35060 ft | 491 kts | 98° |
| 2026-04-25 21:41 | 46.96865 | 14.66252 | 35061 ft | 492 kts | 98° |
| 2026-04-25 21:41 | 46.95730 | 14.76130 | 35055 ft | 492 kts | 98° |
| 2026-04-25 21:42 | 46.94586 | 14.86007 | 35048 ft | 492 kts | 98° |
| 2026-04-25 21:42 | 46.93434 | 14.95882 | 35049 ft | 493 kts | 98° |
| 2026-04-25 21:43 | 46.92270 | 15.05784 | 35035 ft | 494 kts | 98° |
| 2026-04-25 21:43 | 46.91096 | 15.15680 | 35030 ft | 494 kts | 98° |
| 2026-04-25 21:44 | 46.89915 | 15.25580 | 35044 ft | 495 kts | 99° |
| 2026-04-25 21:45 | 46.88120 | 15.40475 | 35021 ft | 499 kts | 99° |
| 2026-04-25 21:45 | 46.86910 | 15.50404 | 35026 ft | 500 kts | 100° |
| 2026-04-25 21:46 | 46.85677 | 15.60459 | 35018 ft | 499 kts | 100° |
| 2026-04-25 21:46 | 46.84451 | 15.70376 | 35015 ft | 500 kts | 100° |
| 2026-04-25 21:47 | 46.83201 | 15.80413 | 35011 ft | 504 kts | 100° |
| 2026-04-25 21:47 | 46.81935 | 15.90506 | 35013 ft | 505 kts | 101° |
| 2026-04-25 21:48 | 46.80661 | 16.00594 | 35005 ft | 505 kts | 101° |
| 2026-04-25 21:48 | 46.79378 | 16.10667 | 35003 ft | 505 kts | 101° |
| 2026-04-25 21:49 | 46.78086 | 16.20737 | 34999 ft | 505 kts | 101° |
| 2026-04-25 21:49 | 46.76786 | 16.30800 | 35005 ft | 505 kts | 101° |
| 2026-04-25 21:50 | 46.75478 | 16.40858 | 35002 ft | 505 kts | 101° |
| 2026-04-25 21:50 | 46.74168 | 16.50851 | 35001 ft | 507 kts | 102° |
| 2026-04-25 21:51 | 46.72829 | 16.60991 | 34999 ft | 511 kts | 102° |
| 2026-04-25 21:51 | 46.71477 | 16.71158 | 34994 ft | 511 kts | 102° |
| 2026-04-25 21:52 | 46.70118 | 16.81314 | 34994 ft | 511 kts | 102° |
| 2026-04-25 21:52 | 46.68748 | 16.91471 | 34997 ft | 512 kts | 102° |
| 2026-04-25 21:53 | 46.67363 | 17.01665 | 34994 ft | 513 kts | 102° |
| 2026-04-25 21:53 | 46.65971 | 17.11845 | 34989 ft | 513 kts | 102° |
| 2026-04-25 21:54 | 46.64569 | 17.22023 | 34991 ft | 513 kts | 102° |
| 2026-04-25 21:54 | 46.63168 | 17.32126 | 34992 ft | 513 kts | 102° |
| 2026-04-25 21:55 | 46.61748 | 17.42297 | 34988 ft | 513 kts | 102° |
| 2026-04-25 21:55 | 46.60320 | 17.52454 | 34987 ft | 512 kts | 102° |
| 2026-04-25 21:56 | 46.58884 | 17.62597 | 34984 ft | 512 kts | 102° |
| 2026-04-25 21:56 | 46.57435 | 17.72757 | 34985 ft | 514 kts | 102° |
| 2026-04-25 21:57 | 46.55974 | 17.82937 | 34987 ft | 515 kts | 102° |
| 2026-04-25 21:57 | 46.54504 | 17.93121 | 34983 ft | 515 kts | 102° |
| 2026-04-25 21:58 | 46.53024 | 18.03295 | 34984 ft | 515 kts | 102° |
| 2026-04-25 21:58 | 46.51533 | 18.13481 | 34983 ft | 517 kts | 102° |
| 2026-04-25 21:59 | 46.50028 | 18.23696 | 34978 ft | 517 kts | 102° |
| 2026-04-25 21:59 | 46.48513 | 18.33905 | 34978 ft | 517 kts | 102° |
| 2026-04-25 22:00 | 46.46235 | 18.49140 | 34982 ft | 517 kts | 102° |
| 2026-04-25 22:00 | 46.44688 | 18.59401 | 34984 ft | 518 kts | 103° |
| 2026-04-25 22:01 | 46.43152 | 18.69526 | 34972 ft | 518 kts | 103° |
| 2026-04-25 22:01 | 46.41849 | 18.78061 | 34972 ft | 517 kts | 103° |
| 2026-04-25 22:02 | 46.40031 | 18.89898 | 34973 ft | 518 kts | 103° |
| 2026-04-25 22:02 | 46.38455 | 19.00087 | 34976 ft | 519 kts | 103° |
| 2026-04-25 22:03 | 46.36869 | 19.10279 | 34970 ft | 519 kts | 103° |
| 2026-04-25 22:03 | 46.35274 | 19.20461 | 34972 ft | 519 kts | 103° |
| 2026-04-25 22:04 | 46.33669 | 19.30649 | 34977 ft | 519 kts | 103° |
| 2026-04-25 22:04 | 46.32053 | 19.40839 | 34977 ft | 519 kts | 103° |
| 2026-04-25 22:05 | 46.30437 | 19.50968 | 34974 ft | 519 kts | 103° |
| 2026-04-25 22:05 | 46.28804 | 19.61141 | 34973 ft | 519 kts | 103° |
| 2026-04-25 22:06 | 46.27164 | 19.71294 | 34974 ft | 518 kts | 103° |
| 2026-04-25 22:06 | 46.25515 | 19.81443 | 34977 ft | 518 kts | 103° |
| 2026-04-25 22:07 | 46.24139 | 19.89868 | 34975 ft | 518 kts | 103° |
| 2026-04-25 22:07 | 46.22191 | 20.01716 | 34973 ft | 518 kts | 103° |
| 2026-04-25 22:08 | 46.20517 | 20.11834 | 34969 ft | 518 kts | 103° |
| 2026-04-25 22:08 | 46.18833 | 20.21953 | 34975 ft | 518 kts | 103° |
| 2026-04-25 22:09 | 46.17140 | 20.32067 | 34968 ft | 518 kts | 103° |
| 2026-04-25 22:09 | 46.15446 | 20.42106 | 34968 ft | 519 kts | 104° |
| 2026-04-25 22:10 | 46.13424 | 20.52095 | 34971 ft | 519 kts | 108° |
| 2026-04-25 22:10 | 46.11227 | 20.61996 | 34974 ft | 519 kts | 108° |
| 2026-04-25 22:11 | 46.09054 | 20.71912 | 34974 ft | 519 kts | 107° |
| 2026-04-25 22:11 | 46.06918 | 20.81826 | 34975 ft | 518 kts | 107° |
| 2026-04-25 22:12 | 46.04788 | 20.91742 | 34976 ft | 518 kts | 107° |
| 2026-04-25 22:12 | 46.02996 | 21.00046 | 34974 ft | 518 kts | 107° |
| 2026-04-25 22:13 | 46.00497 | 21.11565 | 34972 ft | 518 kts | 107° |
| 2026-04-25 22:13 | 45.98336 | 21.21469 | 34990 ft | 518 kts | 107° |
| 2026-04-25 22:14 | 45.96171 | 21.31348 | 34991 ft | 518 kts | 108° |
| 2026-04-25 22:14 | 45.94009 | 21.41163 | 34991 ft | 518 kts | 108° |
| 2026-04-25 22:15 | 45.91826 | 21.51026 | 34994 ft | 518 kts | 108° |
| 2026-04-25 22:16 | 45.88540 | 21.65792 | 34999 ft | 518 kts | 108° |
| 2026-04-25 22:16 | 45.86336 | 21.75633 | 34999 ft | 518 kts | 108° |
| 2026-04-25 22:17 | 45.84125 | 21.85463 | 34997 ft | 518 kts | 108° |
| 2026-04-25 22:17 | 45.81906 | 21.95281 | 35009 ft | 518 kts | 108° |
| 2026-04-25 22:18 | 45.79679 | 22.05094 | 35007 ft | 518 kts | 108° |
| 2026-04-25 22:18 | 45.77444 | 22.14897 | 35011 ft | 518 kts | 108° |
| 2026-04-25 22:19 | 45.75200 | 22.24693 | 35016 ft | 518 kts | 108° |
| 2026-04-25 22:19 | 45.72944 | 22.34497 | 35014 ft | 518 kts | 108° |
| 2026-04-25 22:20 | 45.70682 | 22.44285 | 35021 ft | 518 kts | 108° |
| 2026-04-25 22:20 | 45.68426 | 22.54000 | 35024 ft | 518 kts | 108° |
| 2026-04-25 22:21 | 45.66146 | 22.63776 | 35028 ft | 518 kts | 108° |
| 2026-04-25 22:21 | 45.63860 | 22.73536 | 35029 ft | 518 kts | 108° |
| 2026-04-25 22:22 | 45.61564 | 22.83292 | 35023 ft | 518 kts | 108° |
| 2026-04-25 22:22 | 45.59650 | 22.91389 | 35023 ft | 518 kts | 108° |
| 2026-04-25 22:23 | 45.57341 | 23.01123 | 35026 ft | 517 kts | 108° |
| 2026-04-25 22:23 | 45.55025 | 23.10842 | 35031 ft | 517 kts | 108° |
| 2026-04-25 22:24 | 45.52697 | 23.20572 | 35028 ft | 517 kts | 108° |
| 2026-04-25 22:24 | 45.50365 | 23.30272 | 35029 ft | 517 kts | 108° |
| 2026-04-25 22:25 | 45.48028 | 23.39953 | 35026 ft | 516 kts | 108° |
| 2026-04-25 22:25 | 45.45683 | 23.49623 | 35029 ft | 516 kts | 108° |
| 2026-04-25 22:26 | 45.43331 | 23.59282 | 35023 ft | 516 kts | 108° |
| 2026-04-25 22:26 | 45.40968 | 23.68947 | 35019 ft | 516 kts | 109° |
| 2026-04-25 22:27 | 45.38602 | 23.78590 | 35023 ft | 516 kts | 109° |
| 2026-04-25 22:27 | 45.36223 | 23.88232 | 35031 ft | 517 kts | 109° |
| 2026-04-25 22:28 | 45.33836 | 23.97868 | 35016 ft | 517 kts | 109° |
| 2026-04-25 22:28 | 45.31454 | 24.07451 | 35017 ft | 518 kts | 109° |
| 2026-04-25 22:29 | 45.29044 | 24.17090 | 35025 ft | 518 kts | 109° |
| 2026-04-25 22:29 | 45.26627 | 24.26725 | 35019 ft | 518 kts | 109° |